sensor_id;sensor_type;location;lat;lon;timestamp;P1;durP1;ratioP1;P2;durP2;ratioP2
317;SDS011;146;53.448;10.228;2022-11-11T00:00:57;5.90;;;2.13;;
317;SDS011;146;53.448;10.228;2022-11-11T00:03:25;5.00;;;3.10;;
317;SDS011;146;53.448;10.228;2022-11-11T00:05:52;2.97;;;2.03;;
317;SDS011;146;53.448;10.228;2022-11-11T00:08:18;5.43;;;3.40;;
317;SDS011;146;53.448;10.228;2022-11-11T00:10:47;2.30;;;2.10;;
317;SDS011;146;53.448;10.228;2022-11-11T00:13:14;7.13;;;2.53;;
317;SDS011;146;53.448;10.228;2022-11-11T00:15:41;4.70;;;2.77;;
317;SDS011;146;53.448;10.228;2022-11-11T00:18:08;3.70;;;2.77;;
317;SDS011;146;53.448;10.228;2022-11-11T00:20:56;2.60;;;2.40;;
317;SDS011;146;53.448;10.228;2022-11-11T00:23:40;5.93;;;2.30;;
317;SDS011;146;53.448;10.228;2022-11-11T00:26:29;2.93;;;2.50;;
317;SDS011;146;53.448;10.228;2022-11-11T00:28:56;2.50;;;2.30;;
317;SDS011;146;53.448;10.228;2022-11-11T00:31:23;4.67;;;3.00;;
317;SDS011;146;53.448;10.228;2022-11-11T00:33:51;4.70;;;2.53;;
317;SDS011;146;53.448;10.228;2022-11-11T00:36:18;4.37;;;2.30;;
317;SDS011;146;53.448;10.228;2022-11-11T00:38:44;4.87;;;3.10;;
317;SDS011;146;53.448;10.228;2022-11-11T00:41:11;6.13;;;3.23;;
317;SDS011;146;53.448;10.228;2022-11-11T00:43:40;3.30;;;3.00;;
317;SDS011;146;53.448;10.228;2022-11-11T00:46:07;3.30;;;3.00;;
317;SDS011;146;53.448;10.228;2022-11-11T00:48:52;3.97;;;3.07;;
317;SDS011;146;53.448;10.228;2022-11-11T00:51:37;4.47;;;3.43;;
317;SDS011;146;53.448;10.228;2022-11-11T00:54:04;4.60;;;3.17;;
317;SDS011;146;53.448;10.228;2022-11-11T00:56:31;3.53;;;2.93;;
317;SDS011;146;53.448;10.228;2022-11-11T00:59:01;5.50;;;3.50;;
317;SDS011;146;53.448;10.228;2022-11-11T01:01:29;6.30;;;3.20;;
317;SDS011;146;53.448;10.228;2022-11-11T01:03:56;7.10;;;3.30;;
317;SDS011;146;53.448;10.228;2022-11-11T01:06:24;7.87;;;3.70;;
317;SDS011;146;53.448;10.228;2022-11-11T01:08:51;5.87;;;4.97;;
317;SDS011;146;53.448;10.228;2022-11-11T01:11:19;5.03;;;3.77;;
317;SDS011;146;53.448;10.228;2022-11-11T01:13:47;4.07;;;3.70;;
317;SDS011;146;53.448;10.228;2022-11-11T01:16:16;6.77;;;4.20;;
317;SDS011;146;53.448;10.228;2022-11-11T01:18:45;7.80;;;4.23;;
317;SDS011;146;53.448;10.228;2022-11-11T01:21:12;5.43;;;3.20;;
317;SDS011;146;53.448;10.228;2022-11-11T01:23:41;6.07;;;3.93;;
317;SDS011;146;53.448;10.228;2022-11-11T01:26:10;4.67;;;4.10;;
317;SDS011;146;53.448;10.228;2022-11-11T01:28:40;6.10;;;3.83;;
317;SDS011;146;53.448;10.228;2022-11-11T01:31:08;4.97;;;4.40;;
317;SDS011;146;53.448;10.228;2022-11-11T01:33:37;5.60;;;3.70;;
317;SDS011;146;53.448;10.228;2022-11-11T01:36:05;4.37;;;3.97;;
317;SDS011;146;53.448;10.228;2022-11-11T01:38:33;4.60;;;4.30;;
317;SDS011;146;53.448;10.228;2022-11-11T01:41:01;6.03;;;3.87;;
317;SDS011;146;53.448;10.228;2022-11-11T01:43:52;5.97;;;5.40;;
317;SDS011;146;53.448;10.228;2022-11-11T01:46:22;6.43;;;5.70;;
317;SDS011;146;53.448;10.228;2022-11-11T01:48:53;9.50;;;4.80;;
317;SDS011;146;53.448;10.228;2022-11-11T01:51:44;5.83;;;5.17;;
317;SDS011;146;53.448;10.228;2022-11-11T01:54:16;5.43;;;4.87;;
317;SDS011;146;53.448;10.228;2022-11-11T01:56:48;6.90;;;5.30;;
317;SDS011;146;53.448;10.228;2022-11-11T01:59:16;5.90;;;5.30;;
317;SDS011;146;53.448;10.228;2022-11-11T02:01:44;6.80;;;6.20;;
317;SDS011;146;53.448;10.228;2022-11-11T02:04:14;5.43;;;4.93;;
317;SDS011;146;53.448;10.228;2022-11-11T02:07:01;8.43;;;4.97;;
317;SDS011;146;53.448;10.228;2022-11-11T02:09:31;5.00;;;4.50;;
317;SDS011;146;53.448;10.228;2022-11-11T02:11:59;5.93;;;4.90;;
317;SDS011;146;53.448;10.228;2022-11-11T02:14:50;6.50;;;4.80;;
317;SDS011;146;53.448;10.228;2022-11-11T02:17:19;5.10;;;4.60;;
317;SDS011;146;53.448;10.228;2022-11-11T02:19:49;4.43;;;4.03;;
317;SDS011;146;53.448;10.228;2022-11-11T02:22:22;4.57;;;3.90;;
317;SDS011;146;53.448;10.228;2022-11-11T02:24:58;4.90;;;4.40;;
317;SDS011;146;53.448;10.228;2022-11-11T02:27:27;6.90;;;4.67;;
317;SDS011;146;53.448;10.228;2022-11-11T02:29:57;5.77;;;3.67;;
317;SDS011;146;53.448;10.228;2022-11-11T02:32:25;4.63;;;4.13;;
317;SDS011;146;53.448;10.228;2022-11-11T02:34:52;4.60;;;3.63;;
317;SDS011;146;53.448;10.228;2022-11-11T02:37:20;4.43;;;4.03;;
317;SDS011;146;53.448;10.228;2022-11-11T02:39:49;5.43;;;3.47;;
317;SDS011;146;53.448;10.228;2022-11-11T02:42:19;4.33;;;3.70;;
317;SDS011;146;53.448;10.228;2022-11-11T02:44:47;5.20;;;3.47;;
317;SDS011;146;53.448;10.228;2022-11-11T02:47:14;3.57;;;3.27;;
317;SDS011;146;53.448;10.228;2022-11-11T02:49:41;4.50;;;3.20;;
317;SDS011;146;53.448;10.228;2022-11-11T02:52:08;8.17;;;3.77;;
317;SDS011;146;53.448;10.228;2022-11-11T02:54:35;4.60;;;3.50;;
317;SDS011;146;53.448;10.228;2022-11-11T02:57:04;4.50;;;3.67;;
317;SDS011;146;53.448;10.228;2022-11-11T02:59:36;5.47;;;4.47;;
317;SDS011;146;53.448;10.228;2022-11-11T03:02:04;4.40;;;3.27;;
317;SDS011;146;53.448;10.228;2022-11-11T03:04:32;6.93;;;4.20;;
317;SDS011;146;53.448;10.228;2022-11-11T03:06:59;4.07;;;3.67;;
317;SDS011;146;53.448;10.228;2022-11-11T03:09:26;4.43;;;3.03;;
317;SDS011;146;53.448;10.228;2022-11-11T03:11:55;4.57;;;4.13;;
317;SDS011;146;53.448;10.228;2022-11-11T03:14:21;4.80;;;4.00;;
317;SDS011;146;53.448;10.228;2022-11-11T03:16:50;6.10;;;4.03;;
317;SDS011;146;53.448;10.228;2022-11-11T03:19:34;5.00;;;3.80;;
317;SDS011;146;53.448;10.228;2022-11-11T03:22:01;5.50;;;3.90;;
317;SDS011;146;53.448;10.228;2022-11-11T03:24:27;6.53;;;4.17;;
317;SDS011;146;53.448;10.228;2022-11-11T03:27:15;6.10;;;3.60;;
317;SDS011;146;53.448;10.228;2022-11-11T03:29:41;4.17;;;3.77;;
317;SDS011;146;53.448;10.228;2022-11-11T03:32:09;4.83;;;3.80;;
317;SDS011;146;53.448;10.228;2022-11-11T03:34:36;4.87;;;4.37;;
317;SDS011;146;53.448;10.228;2022-11-11T03:37:03;6.67;;;3.97;;
317;SDS011;146;53.448;10.228;2022-11-11T03:39:49;4.60;;;3.90;;
317;SDS011;146;53.448;10.228;2022-11-11T03:42:16;5.97;;;3.97;;
317;SDS011;146;53.448;10.228;2022-11-11T03:44:43;6.10;;;3.90;;
317;SDS011;146;53.448;10.228;2022-11-11T03:47:11;4.30;;;3.80;;
317;SDS011;146;53.448;10.228;2022-11-11T03:49:40;6.63;;;4.23;;
317;SDS011;146;53.448;10.228;2022-11-11T03:52:07;5.10;;;4.30;;
317;SDS011;146;53.448;10.228;2022-11-11T03:54:34;6.27;;;4.43;;
317;SDS011;146;53.448;10.228;2022-11-11T03:57:01;7.23;;;5.47;;
317;SDS011;146;53.448;10.228;2022-11-11T03:59:46;4.50;;;4.10;;
317;SDS011;146;53.448;10.228;2022-11-11T04:02:14;5.33;;;4.80;;
317;SDS011;146;53.448;10.228;2022-11-11T04:04:58;4.77;;;4.30;;
317;SDS011;146;53.448;10.228;2022-11-11T04:07:43;4.80;;;4.30;;
317;SDS011;146;53.448;10.228;2022-11-11T04:10:28;8.77;;;4.60;;
317;SDS011;146;53.448;10.228;2022-11-11T04:12:56;7.07;;;4.87;;
317;SDS011;146;53.448;10.228;2022-11-11T04:15:42;5.40;;;4.63;;
317;SDS011;146;53.448;10.228;2022-11-11T04:18:28;6.50;;;4.70;;
317;SDS011;146;53.448;10.228;2022-11-11T04:21:12;10.30;;;5.57;;
317;SDS011;146;53.448;10.228;2022-11-11T04:24:08;4.97;;;4.53;;
317;SDS011;146;53.448;10.228;2022-11-11T04:26:55;5.57;;;5.00;;
317;SDS011;146;53.448;10.228;2022-11-11T04:29:22;6.47;;;4.43;;
317;SDS011;146;53.448;10.228;2022-11-11T04:31:57;5.33;;;4.60;;
317;SDS011;146;53.448;10.228;2022-11-11T04:34:44;7.10;;;4.80;;
317;SDS011;146;53.448;10.228;2022-11-11T04:37:12;8.83;;;5.70;;
317;SDS011;146;53.448;10.228;2022-11-11T04:39:39;6.57;;;5.97;;
317;SDS011;146;53.448;10.228;2022-11-11T04:42:23;5.50;;;5.00;;
317;SDS011;146;53.448;10.228;2022-11-11T04:44:50;7.83;;;5.27;;
317;SDS011;146;53.448;10.228;2022-11-11T04:47:35;7.57;;;5.40;;
317;SDS011;146;53.448;10.228;2022-11-11T04:50:04;5.70;;;5.17;;
317;SDS011;146;53.448;10.228;2022-11-11T04:52:32;7.27;;;5.33;;
317;SDS011;146;53.448;10.228;2022-11-11T04:54:58;8.00;;;5.00;;
317;SDS011;146;53.448;10.228;2022-11-11T04:57:45;6.43;;;4.90;;
317;SDS011;146;53.448;10.228;2022-11-11T05:00:13;5.23;;;4.80;;
317;SDS011;146;53.448;10.228;2022-11-11T05:02:42;10.60;;;5.20;;
317;SDS011;146;53.448;10.228;2022-11-11T05:05:27;5.97;;;4.70;;
317;SDS011;146;53.448;10.228;2022-11-11T05:08:19;4.97;;;4.57;;
317;SDS011;146;53.448;10.228;2022-11-11T05:11:04;7.07;;;5.17;;
317;SDS011;146;53.448;10.228;2022-11-11T05:13:31;6.20;;;5.40;;
317;SDS011;146;53.448;10.228;2022-11-11T05:16:17;8.30;;;5.40;;
317;SDS011;146;53.448;10.228;2022-11-11T05:19:00;6.10;;;5.50;;
317;SDS011;146;53.448;10.228;2022-11-11T05:21:47;9.97;;;4.80;;
317;SDS011;146;53.448;10.228;2022-11-11T05:24:16;8.40;;;5.37;;
317;SDS011;146;53.448;10.228;2022-11-11T05:27:00;6.63;;;5.50;;
317;SDS011;146;53.448;10.228;2022-11-11T05:29:27;5.40;;;4.87;;
317;SDS011;146;53.448;10.228;2022-11-11T05:31:53;10.07;;;6.13;;
317;SDS011;146;53.448;10.228;2022-11-11T05:34:20;8.43;;;5.27;;
317;SDS011;146;53.448;10.228;2022-11-11T05:36:48;6.03;;;4.87;;
317;SDS011;146;53.448;10.228;2022-11-11T05:39:15;7.03;;;5.60;;
317;SDS011;146;53.448;10.228;2022-11-11T05:41:42;7.23;;;6.17;;
317;SDS011;146;53.448;10.228;2022-11-11T05:44:09;8.63;;;5.60;;
317;SDS011;146;53.448;10.228;2022-11-11T05:46:36;6.50;;;5.90;;
317;SDS011;146;53.448;10.228;2022-11-11T05:49:03;5.47;;;4.97;;
317;SDS011;146;53.448;10.228;2022-11-11T05:51:42;5.70;;;5.20;;
317;SDS011;146;53.448;10.228;2022-11-11T05:54:10;6.97;;;6.37;;
317;SDS011;146;53.448;10.228;2022-11-11T05:56:37;6.57;;;5.23;;
317;SDS011;146;53.448;10.228;2022-11-11T05:59:04;6.80;;;6.20;;
317;SDS011;146;53.448;10.228;2022-11-11T06:01:32;6.47;;;5.80;;
317;SDS011;146;53.448;10.228;2022-11-11T06:03:59;6.87;;;6.20;;
317;SDS011;146;53.448;10.228;2022-11-11T06:06:26;12.70;;;6.93;;
317;SDS011;146;53.448;10.228;2022-11-11T06:08:53;7.53;;;6.80;;
317;SDS011;146;53.448;10.228;2022-11-11T06:11:22;8.50;;;6.00;;
317;SDS011;146;53.448;10.228;2022-11-11T06:13:49;8.10;;;6.70;;
317;SDS011;146;53.448;10.228;2022-11-11T06:16:16;8.00;;;6.00;;
317;SDS011;146;53.448;10.228;2022-11-11T06:18:43;7.50;;;6.77;;
317;SDS011;146;53.448;10.228;2022-11-11T06:21:10;8.20;;;6.43;;
317;SDS011;146;53.448;10.228;2022-11-11T06:23:37;8.60;;;6.70;;
317;SDS011;146;53.448;10.228;2022-11-11T06:26:04;10.40;;;6.90;;
317;SDS011;146;53.448;10.228;2022-11-11T06:28:43;9.50;;;6.70;;
317;SDS011;146;53.448;10.228;2022-11-11T06:31:12;8.40;;;6.53;;
317;SDS011;146;53.448;10.228;2022-11-11T06:33:40;7.70;;;6.87;;
317;SDS011;146;53.448;10.228;2022-11-11T06:36:07;9.10;;;8.17;;
317;SDS011;146;53.448;10.228;2022-11-11T06:38:35;7.40;;;6.70;;
317;SDS011;146;53.448;10.228;2022-11-11T06:41:02;8.77;;;6.20;;
317;SDS011;146;53.448;10.228;2022-11-11T06:43:29;8.43;;;6.87;;
317;SDS011;146;53.448;10.228;2022-11-11T06:45:58;9.17;;;7.23;;
317;SDS011;146;53.448;10.228;2022-11-11T06:48:26;8.93;;;7.30;;
317;SDS011;146;53.448;10.228;2022-11-11T06:50:54;10.90;;;7.50;;
317;SDS011;146;53.448;10.228;2022-11-11T06:53:26;15.33;;;6.33;;
317;SDS011;146;53.448;10.228;2022-11-11T06:55:54;11.03;;;7.13;;
317;SDS011;146;53.448;10.228;2022-11-11T06:58:21;10.67;;;7.20;;
317;SDS011;146;53.448;10.228;2022-11-11T07:00:50;8.07;;;7.27;;
317;SDS011;146;53.448;10.228;2022-11-11T07:03:19;9.40;;;8.40;;
317;SDS011;146;53.448;10.228;2022-11-11T07:05:47;9.10;;;6.80;;
317;SDS011;146;53.448;10.228;2022-11-11T07:08:15;11.93;;;7.50;;
317;SDS011;146;53.448;10.228;2022-11-11T07:10:45;12.53;;;6.90;;
317;SDS011;146;53.448;10.228;2022-11-11T07:13:14;10.00;;;6.70;;
317;SDS011;146;53.448;10.228;2022-11-11T07:15:42;10.47;;;6.67;;
317;SDS011;146;53.448;10.228;2022-11-11T07:18:10;7.30;;;6.60;;
317;SDS011;146;53.448;10.228;2022-11-11T07:20:39;8.70;;;7.87;;
317;SDS011;146;53.448;10.228;2022-11-11T07:23:09;10.70;;;7.83;;
317;SDS011;146;53.448;10.228;2022-11-11T07:25:37;9.20;;;7.03;;
317;SDS011;146;53.448;10.228;2022-11-11T07:28:07;8.00;;;7.20;;
317;SDS011;146;53.448;10.228;2022-11-11T07:30:34;10.77;;;7.70;;
317;SDS011;146;53.448;10.228;2022-11-11T07:33:01;12.13;;;9.10;;
317;SDS011;146;53.448;10.228;2022-11-11T07:35:28;10.23;;;7.37;;
317;SDS011;146;53.448;10.228;2022-11-11T07:37:56;9.80;;;7.63;;
317;SDS011;146;53.448;10.228;2022-11-11T07:40:23;10.57;;;9.50;;
317;SDS011;146;53.448;10.228;2022-11-11T07:42:50;11.83;;;9.27;;
317;SDS011;146;53.448;10.228;2022-11-11T07:45:17;9.83;;;8.80;;
317;SDS011;146;53.448;10.228;2022-11-11T07:47:44;10.87;;;9.70;;
317;SDS011;146;53.448;10.228;2022-11-11T07:50:11;11.27;;;10.10;;
317;SDS011;146;53.448;10.228;2022-11-11T07:52:38;10.57;;;9.30;;
317;SDS011;146;53.448;10.228;2022-11-11T07:55:07;13.87;;;10.03;;
317;SDS011;146;53.448;10.228;2022-11-11T07:57:34;11.00;;;9.90;;
317;SDS011;146;53.448;10.228;2022-11-11T08:00:02;12.40;;;10.43;;
317;SDS011;146;53.448;10.228;2022-11-11T08:02:30;13.50;;;10.90;;
317;SDS011;146;53.448;10.228;2022-11-11T08:04:57;12.13;;;10.23;;
317;SDS011;146;53.448;10.228;2022-11-11T08:07:24;12.40;;;10.23;;
317;SDS011;146;53.448;10.228;2022-11-11T08:09:51;18.37;;;12.90;;
317;SDS011;146;53.448;10.228;2022-11-11T08:12:19;12.83;;;10.83;;
317;SDS011;146;53.448;10.228;2022-11-11T08:15:04;13.43;;;11.10;;
317;SDS011;146;53.448;10.228;2022-11-11T08:17:35;14.43;;;11.33;;
317;SDS011;146;53.448;10.228;2022-11-11T08:20:03;13.80;;;11.07;;
317;SDS011;146;53.448;10.228;2022-11-11T08:22:34;13.47;;;11.27;;
317;SDS011;146;53.448;10.228;2022-11-11T08:25:02;14.10;;;11.47;;
317;SDS011;146;53.448;10.228;2022-11-11T08:27:32;15.23;;;11.07;;
317;SDS011;146;53.448;10.228;2022-11-11T08:29:58;13.77;;;10.93;;
317;SDS011;146;53.448;10.228;2022-11-11T08:32:25;15.07;;;10.00;;
317;SDS011;146;53.448;10.228;2022-11-11T08:34:52;12.50;;;10.20;;
317;SDS011;146;53.448;10.228;2022-11-11T08:37:20;19.07;;;11.90;;
317;SDS011;146;53.448;10.228;2022-11-11T08:39:47;13.00;;;11.70;;
317;SDS011;146;53.448;10.228;2022-11-11T08:42:13;13.80;;;10.30;;
317;SDS011;146;53.448;10.228;2022-11-11T08:44:42;11.10;;;10.00;;
317;SDS011;146;53.448;10.228;2022-11-11T08:47:09;16.70;;;12.87;;
317;SDS011;146;53.448;10.228;2022-11-11T08:49:35;11.60;;;10.43;;
317;SDS011;146;53.448;10.228;2022-11-11T08:52:02;11.33;;;10.23;;
317;SDS011;146;53.448;10.228;2022-11-11T08:54:29;13.57;;;11.17;;
317;SDS011;146;53.448;10.228;2022-11-11T08:56:58;15.97;;;12.47;;
317;SDS011;146;53.448;10.228;2022-11-11T08:59:24;15.77;;;11.00;;
317;SDS011;146;53.448;10.228;2022-11-11T09:01:53;13.50;;;12.10;;
317;SDS011;146;53.448;10.228;2022-11-11T09:04:19;11.77;;;9.70;;
317;SDS011;146;53.448;10.228;2022-11-11T09:06:46;11.67;;;10.47;;
317;SDS011;146;53.448;10.228;2022-11-11T09:09:13;13.90;;;11.43;;
317;SDS011;146;53.448;10.228;2022-11-11T09:11:40;14.07;;;11.97;;
317;SDS011;146;53.448;10.228;2022-11-11T09:14:09;16.60;;;11.83;;
317;SDS011;146;53.448;10.228;2022-11-11T09:16:36;13.63;;;11.40;;
317;SDS011;146;53.448;10.228;2022-11-11T09:19:04;18.00;;;11.10;;
317;SDS011;146;53.448;10.228;2022-11-11T09:21:31;12.77;;;11.10;;
317;SDS011;146;53.448;10.228;2022-11-11T09:23:58;16.03;;;10.93;;
317;SDS011;146;53.448;10.228;2022-11-11T09:26:25;14.67;;;11.23;;
317;SDS011;146;53.448;10.228;2022-11-11T09:28:52;12.53;;;10.00;;
317;SDS011;146;53.448;10.228;2022-11-11T09:31:19;12.30;;;10.97;;
317;SDS011;146;53.448;10.228;2022-11-11T09:33:47;11.57;;;10.10;;
317;SDS011;146;53.448;10.228;2022-11-11T09:36:15;13.87;;;10.70;;
317;SDS011;146;53.448;10.228;2022-11-11T09:38:42;11.67;;;10.47;;
317;SDS011;146;53.448;10.228;2022-11-11T09:41:14;14.63;;;11.23;;
317;SDS011;146;53.448;10.228;2022-11-11T09:43:47;22.40;;;11.57;;
317;SDS011;146;53.448;10.228;2022-11-11T09:46:21;11.83;;;10.50;;
317;SDS011;146;53.448;10.228;2022-11-11T09:51:55;13.07;;;10.03;;
317;SDS011;146;53.448;10.228;2022-11-11T09:54:29;13.57;;;11.30;;
317;SDS011;146;53.448;10.228;2022-11-11T09:57:02;10.97;;;9.87;;
317;SDS011;146;53.448;10.228;2022-11-11T09:59:38;12.37;;;10.90;;
317;SDS011;146;53.448;10.228;2022-11-11T10:02:12;13.87;;;9.90;;
317;SDS011;146;53.448;10.228;2022-11-11T10:04:47;11.73;;;10.53;;
317;SDS011;146;53.448;10.228;2022-11-11T10:07:23;14.10;;;11.03;;
317;SDS011;146;53.448;10.228;2022-11-11T10:09:54;11.03;;;9.90;;
317;SDS011;146;53.448;10.228;2022-11-11T10:12:25;13.87;;;11.03;;
317;SDS011;146;53.448;10.228;2022-11-11T10:15:01;13.00;;;10.80;;
317;SDS011;146;53.448;10.228;2022-11-11T10:17:31;10.50;;;9.40;;
317;SDS011;146;53.448;10.228;2022-11-11T10:20:05;12.47;;;11.17;;
317;SDS011;146;53.448;10.228;2022-11-11T10:22:39;14.10;;;11.30;;
317;SDS011;146;53.448;10.228;2022-11-11T10:25:15;13.20;;;10.80;;
317;SDS011;146;53.448;10.228;2022-11-11T10:27:46;19.93;;;12.53;;
317;SDS011;146;53.448;10.228;2022-11-11T10:30:17;13.03;;;11.67;;
317;SDS011;146;53.448;10.228;2022-11-11T10:32:47;12.53;;;11.30;;
317;SDS011;146;53.448;10.228;2022-11-11T10:35:19;14.47;;;11.97;;
317;SDS011;146;53.448;10.228;2022-11-11T10:37:52;14.37;;;11.93;;
317;SDS011;146;53.448;10.228;2022-11-11T10:40:33;16.13;;;10.93;;
317;SDS011;146;53.448;10.228;2022-11-11T10:43:05;11.93;;;10.73;;
317;SDS011;146;53.448;10.228;2022-11-11T10:45:44;12.37;;;10.43;;
317;SDS011;146;53.448;10.228;2022-11-11T10:48:17;12.43;;;11.13;;
317;SDS011;146;53.448;10.228;2022-11-11T10:50:49;15.70;;;11.60;;
317;SDS011;146;53.448;10.228;2022-11-11T10:53:21;15.30;;;12.43;;
317;SDS011;146;53.448;10.228;2022-11-11T10:55:55;13.33;;;11.33;;
317;SDS011;146;53.448;10.228;2022-11-11T10:58:29;12.90;;;10.80;;
317;SDS011;146;53.448;10.228;2022-11-11T11:01:00;14.43;;;11.47;;
317;SDS011;146;53.448;10.228;2022-11-11T11:03:30;14.83;;;10.20;;
317;SDS011;146;53.448;10.228;2022-11-11T11:06:02;15.60;;;10.73;;
317;SDS011;146;53.448;10.228;2022-11-11T11:08:36;11.93;;;10.10;;
317;SDS011;146;53.448;10.228;2022-11-11T11:11:18;17.43;;;11.80;;
317;SDS011;146;53.448;10.228;2022-11-11T11:17:38;12.57;;;10.60;;
317;SDS011;146;53.448;10.228;2022-11-11T11:20:54;14.37;;;12.20;;
317;SDS011;146;53.448;10.228;2022-11-11T11:23:37;12.87;;;10.47;;
317;SDS011;146;53.448;10.228;2022-11-11T11:26:06;19.33;;;11.63;;
317;SDS011;146;53.448;10.228;2022-11-11T11:28:35;12.40;;;10.77;;
317;SDS011;146;53.448;10.228;2022-11-11T11:31:22;12.47;;;11.10;;
317;SDS011;146;53.448;10.228;2022-11-11T11:34:01;13.10;;;11.87;;
317;SDS011;146;53.448;10.228;2022-11-11T11:36:28;12.50;;;11.10;;
317;SDS011;146;53.448;10.228;2022-11-11T11:38:57;11.07;;;9.87;;
317;SDS011;146;53.448;10.228;2022-11-11T11:41:35;13.53;;;9.63;;
317;SDS011;146;53.448;10.228;2022-11-11T11:44:04;17.73;;;13.20;;
317;SDS011;146;53.448;10.228;2022-11-11T11:46:50;12.13;;;10.20;;
317;SDS011;146;53.448;10.228;2022-11-11T11:49:24;14.07;;;10.83;;
317;SDS011;146;53.448;10.228;2022-11-11T11:52:01;11.47;;;10.27;;
317;SDS011;146;53.448;10.228;2022-11-11T11:54:45;13.20;;;9.67;;
317;SDS011;146;53.448;10.228;2022-11-11T11:57:22;13.33;;;9.70;;
317;SDS011;146;53.448;10.228;2022-11-11T12:00:03;9.97;;;8.77;;
317;SDS011;146;53.448;10.228;2022-11-11T12:02:37;11.00;;;9.00;;
317;SDS011;146;53.448;10.228;2022-11-11T12:05:25;10.67;;;9.67;;
317;SDS011;146;53.448;10.228;2022-11-11T12:08:07;10.13;;;9.13;;
317;SDS011;146;53.448;10.228;2022-11-11T12:10:52;10.57;;;9.30;;
317;SDS011;146;53.448;10.228;2022-11-11T12:13:29;9.57;;;8.60;;
317;SDS011;146;53.448;10.228;2022-11-11T12:16:08;10.17;;;9.13;;
317;SDS011;146;53.448;10.228;2022-11-11T12:18:59;9.07;;;8.13;;
317;SDS011;146;53.448;10.228;2022-11-11T12:21:55;9.63;;;7.57;;
317;SDS011;146;53.448;10.228;2022-11-11T12:24:32;9.43;;;8.23;;
317;SDS011;146;53.448;10.228;2022-11-11T12:27:11;9.70;;;8.10;;
317;SDS011;146;53.448;10.228;2022-11-11T12:29:47;9.23;;;8.43;;
317;SDS011;146;53.448;10.228;2022-11-11T12:32:31;9.40;;;8.60;;
317;SDS011;146;53.448;10.228;2022-11-11T12:35:13;11.80;;;8.20;;
317;SDS011;146;53.448;10.228;2022-11-11T12:37:51;12.13;;;11.03;;
317;SDS011;146;53.448;10.228;2022-11-11T12:40:31;15.27;;;13.80;;
317;SDS011;146;53.448;10.228;2022-11-11T12:43:09;14.77;;;11.70;;
317;SDS011;146;53.448;10.228;2022-11-11T12:45:46;13.90;;;10.97;;
317;SDS011;146;53.448;10.228;2022-11-11T12:48:24;11.27;;;8.90;;
317;SDS011;146;53.448;10.228;2022-11-11T12:51:01;9.80;;;8.80;;
317;SDS011;146;53.448;10.228;2022-11-11T12:53:36;7.80;;;7.10;;
317;SDS011;146;53.448;10.228;2022-11-11T12:56:13;9.33;;;8.43;;
317;SDS011;146;53.448;10.228;2022-11-11T12:58:52;8.00;;;7.23;;
317;SDS011;146;53.448;10.228;2022-11-11T13:01:24;8.87;;;7.73;;
317;SDS011;146;53.448;10.228;2022-11-11T13:04:21;8.37;;;7.60;;
317;SDS011;146;53.448;10.228;2022-11-11T13:10:31;9.70;;;7.20;;
317;SDS011;146;53.448;10.228;2022-11-11T13:13:18;14.47;;;10.60;;
317;SDS011;146;53.448;10.228;2022-11-11T13:15:59;7.87;;;7.27;;
317;SDS011;146;53.448;10.228;2022-11-11T13:18:29;8.77;;;7.87;;
317;SDS011;146;53.448;10.228;2022-11-11T13:21:06;9.60;;;8.43;;
317;SDS011;146;53.448;10.228;2022-11-11T13:23:39;9.07;;;7.40;;
317;SDS011;146;53.448;10.228;2022-11-11T13:26:10;9.40;;;7.90;;
317;SDS011;146;53.448;10.228;2022-11-11T13:28:54;9.57;;;8.30;;
317;SDS011;146;53.448;10.228;2022-11-11T13:31:36;8.10;;;7.30;;
317;SDS011;146;53.448;10.228;2022-11-11T13:34:08;11.70;;;8.97;;
317;SDS011;146;53.448;10.228;2022-11-11T13:36:39;8.50;;;7.70;;
317;SDS011;146;53.448;10.228;2022-11-11T13:39:17;8.17;;;7.53;;
317;SDS011;146;53.448;10.228;2022-11-11T13:41:51;10.60;;;7.53;;
317;SDS011;146;53.448;10.228;2022-11-11T13:44:21;9.00;;;7.87;;
317;SDS011;146;53.448;10.228;2022-11-11T13:46:54;8.27;;;7.57;;
317;SDS011;146;53.448;10.228;2022-11-11T13:49:28;9.57;;;8.00;;
317;SDS011;146;53.448;10.228;2022-11-11T13:51:58;8.63;;;7.17;;
317;SDS011;146;53.448;10.228;2022-11-11T13:54:27;9.53;;;7.60;;
317;SDS011;146;53.448;10.228;2022-11-11T13:57:00;11.63;;;8.17;;
317;SDS011;146;53.448;10.228;2022-11-11T13:59:31;8.97;;;8.07;;
317;SDS011;146;53.448;10.228;2022-11-11T14:05:15;10.33;;;7.50;;
317;SDS011;146;53.448;10.228;2022-11-11T14:07:51;7.63;;;6.93;;
317;SDS011;146;53.448;10.228;2022-11-11T14:13:34;10.20;;;8.33;;
317;SDS011;146;53.448;10.228;2022-11-11T14:16:03;9.20;;;7.20;;
317;SDS011;146;53.448;10.228;2022-11-11T14:18:38;10.30;;;9.30;;
317;SDS011;146;53.448;10.228;2022-11-11T14:21:07;9.00;;;7.00;;
317;SDS011;146;53.448;10.228;2022-11-11T14:23:37;8.87;;;7.93;;
317;SDS011;146;53.448;10.228;2022-11-11T14:26:19;8.60;;;7.70;;
317;SDS011;146;53.448;10.228;2022-11-11T14:28:50;8.67;;;7.97;;
317;SDS011;146;53.448;10.228;2022-11-11T14:31:40;9.27;;;8.27;;
317;SDS011;146;53.448;10.228;2022-11-11T14:34:45;8.93;;;7.27;;
317;SDS011;146;53.448;10.228;2022-11-11T14:37:32;9.13;;;8.40;;
317;SDS011;146;53.448;10.228;2022-11-11T14:40:22;7.80;;;7.10;;
317;SDS011;146;53.448;10.228;2022-11-11T14:42:50;9.93;;;7.93;;
317;SDS011;146;53.448;10.228;2022-11-11T14:54:24;8.43;;;7.40;;
317;SDS011;146;53.448;10.228;2022-11-11T14:57:10;8.00;;;7.30;;
317;SDS011;146;53.448;10.228;2022-11-11T14:59:45;8.37;;;7.53;;
317;SDS011;146;53.448;10.228;2022-11-11T15:02:16;9.30;;;6.80;;
317;SDS011;146;53.448;10.228;2022-11-11T15:04:47;9.00;;;7.30;;
317;SDS011;146;53.448;10.228;2022-11-11T15:10:29;7.17;;;6.57;;
317;SDS011;146;53.448;10.228;2022-11-11T15:15:59;7.60;;;6.90;;
317;SDS011;146;53.448;10.228;2022-11-11T15:21:39;7.87;;;7.13;;
317;SDS011;146;53.448;10.228;2022-11-11T15:24:22;7.30;;;6.60;;
317;SDS011;146;53.448;10.228;2022-11-11T15:26:59;7.70;;;7.00;;
317;SDS011;146;53.448;10.228;2022-11-11T15:29:46;10.13;;;7.77;;
317;SDS011;146;53.448;10.228;2022-11-11T15:32:24;7.73;;;7.13;;
317;SDS011;146;53.448;10.228;2022-11-11T15:35:02;8.00;;;7.20;;
317;SDS011;146;53.448;10.228;2022-11-11T15:37:45;9.20;;;7.60;;
317;SDS011;146;53.448;10.228;2022-11-11T15:40:19;8.80;;;8.00;;
317;SDS011;146;53.448;10.228;2022-11-11T15:42:47;8.43;;;7.63;;
317;SDS011;146;53.448;10.228;2022-11-11T15:45:19;8.00;;;6.80;;
317;SDS011;146;53.448;10.228;2022-11-11T15:47:47;9.10;;;8.20;;
317;SDS011;146;53.448;10.228;2022-11-11T15:50:18;9.37;;;8.50;;
317;SDS011;146;53.448;10.228;2022-11-11T15:52:55;8.03;;;7.43;;
317;SDS011;146;53.448;10.228;2022-11-11T15:55:24;8.40;;;7.60;;
317;SDS011;146;53.448;10.228;2022-11-11T15:57:53;8.03;;;7.23;;
317;SDS011;146;53.448;10.228;2022-11-11T16:00:26;8.33;;;7.43;;
317;SDS011;146;53.448;10.228;2022-11-11T16:02:55;9.03;;;8.13;;
317;SDS011;146;53.448;10.228;2022-11-11T16:05:23;8.60;;;7.83;;
317;SDS011;146;53.448;10.228;2022-11-11T16:07:52;9.23;;;8.30;;
317;SDS011;146;53.448;10.228;2022-11-11T16:10:25;10.50;;;8.90;;
317;SDS011;146;53.448;10.228;2022-11-11T16:12:56;12.43;;;9.83;;
317;SDS011;146;53.448;10.228;2022-11-11T16:15:36;10.03;;;9.10;;
317;SDS011;146;53.448;10.228;2022-11-11T16:18:09;9.60;;;8.60;;
317;SDS011;146;53.448;10.228;2022-11-11T16:20:41;10.10;;;9.20;;
317;SDS011;146;53.448;10.228;2022-11-11T16:23:15;10.33;;;9.23;;
317;SDS011;146;53.448;10.228;2022-11-11T16:25:45;9.60;;;8.77;;
317;SDS011;146;53.448;10.228;2022-11-11T16:28:14;9.60;;;8.80;;